createdAt,value
2022-10-20T06:09:43.004Z,10.06
2022-10-20T06:11:46.645Z,10.10
2022-10-20T06:13:52.633Z,10.13
2022-10-20T06:15:56.629Z,10.15
2022-10-20T06:17:59.812Z,10.19
2022-10-20T06:20:03.249Z,10.17
2022-10-20T06:22:07.068Z,10.20
2022-10-20T06:24:11.994Z,10.23
2022-10-20T06:26:18.586Z,10.25
2022-10-20T06:28:21.942Z,10.24
2022-10-20T06:30:25.392Z,10.27
2022-10-20T06:32:28.696Z,10.32
2022-10-20T06:34:31.981Z,10.31
2022-10-20T06:36:37.417Z,10.30
2022-10-20T06:38:41.216Z,10.31
2022-10-20T06:40:44.411Z,10.26
2022-10-20T06:42:49.098Z,10.21
2022-10-20T06:44:52.373Z,10.14
2022-10-20T06:46:55.774Z,10.12
2022-10-20T06:49:01.281Z,10.07
2022-10-20T06:51:06.587Z,10.08
2022-10-20T06:53:09.905Z,10.10
2022-10-20T06:55:13.221Z,10.11
2022-10-20T06:57:16.569Z,10.12
2022-10-20T06:59:21.225Z,10.12
2022-10-20T07:04:29.363Z,10.07
2022-10-20T07:40:33.870Z,10.25
2022-10-20T07:42:37.429Z,10.22
2022-10-20T07:44:40.891Z,10.15
2022-10-20T07:46:44.461Z,10.13
2022-10-20T07:48:47.830Z,10.20
2022-10-20T07:50:51.114Z,10.26
2022-10-20T07:52:54.612Z,10.26
2022-10-20T07:55:06.429Z,10.31
2022-10-20T07:57:22.619Z,10.42
2022-10-20T07:59:25.991Z,10.49
2022-10-20T08:01:29.765Z,10.54
2022-10-20T08:03:33.262Z,10.57
2022-10-20T08:05:36.480Z,10.58
2022-10-20T08:07:39.903Z,10.59
2022-10-20T08:11:46.492Z,10.68
2022-10-20T08:13:51.099Z,10.71
2022-10-20T08:15:55.936Z,10.76
2022-10-20T08:17:59.210Z,10.84
2022-10-20T08:20:08.436Z,10.90
2022-10-20T08:22:13.089Z,10.96
2022-10-20T08:24:16.343Z,11.01
2022-10-20T08:26:21.173Z,11.02
2022-10-20T08:28:26.261Z,10.99
2022-10-20T08:30:32.353Z,11.00
2022-10-20T08:32:35.908Z,11.05
2022-10-20T08:34:39.308Z,11.09
2022-10-20T08:36:42.564Z,11.20
2022-10-20T08:38:45.936Z,11.28
2022-10-20T08:40:49.262Z,11.43
2022-10-20T08:42:53.313Z,11.62
2022-10-20T08:45:00.621Z,11.81
2022-10-20T08:47:14.689Z,11.94
2022-10-20T08:49:22.944Z,12.09
2022-10-20T08:51:33.444Z,12.16
2022-10-20T08:53:41.025Z,12.28
2022-10-20T08:55:46.160Z,12.46
2022-10-20T08:57:50.406Z,12.63
2022-10-20T08:59:55.278Z,12.78
2022-10-20T09:01:59.205Z,12.96
2022-10-20T09:04:13.006Z,13.02
2022-10-20T09:06:17.825Z,13.01
2022-10-20T09:08:23.187Z,12.90
2022-10-20T09:10:32.927Z,13.01
2022-10-20T09:12:37.858Z,13.19
2022-10-20T09:14:41.262Z,13.39
2022-10-20T09:16:59.634Z,13.46
2022-10-20T09:19:06.925Z,13.65
2022-10-20T09:21:17.882Z,13.76
2022-10-20T09:23:41.847Z,13.81
2022-10-20T09:25:46.957Z,13.67
2022-10-20T09:27:50.158Z,13.62
2022-10-20T09:29:53.429Z,13.62
2022-10-20T09:31:57.154Z,13.65
2022-10-20T10:42:17.164Z,15.43
2022-10-20T10:44:31.518Z,14.98
2022-10-20T10:46:38.323Z,14.84
2022-10-20T10:49:09.231Z,14.64
2022-10-20T10:51:22.091Z,14.46
2022-10-20T10:53:36.620Z,14.39
2022-10-20T10:55:49.893Z,14.34
2022-10-20T10:58:04.502Z,14.44
2022-10-20T11:00:15.358Z,14.63
2022-10-20T11:02:35.178Z,14.79
2022-10-20T11:05:04.985Z,14.88
2022-10-20T11:07:12.685Z,15.00
2022-10-20T11:09:25.254Z,15.14
2022-10-20T11:11:42.723Z,15.26
2022-10-20T11:13:57.245Z,15.26
2022-10-20T11:16:16.902Z,15.26
2022-10-20T11:18:41.046Z,15.24
2022-10-20T11:20:52.746Z,15.38
2022-10-20T11:23:23.429Z,15.44
2022-10-20T11:25:32.992Z,15.50
2022-10-20T11:27:39.271Z,15.56
2022-10-20T11:29:48.301Z,15.55
2022-10-20T11:31:55.206Z,15.53
2022-10-20T11:34:06.457Z,15.40
2022-10-20T11:36:17.139Z,15.31
2022-10-20T11:38:25.261Z,15.23
2022-10-20T11:40:32.752Z,15.13
2022-10-20T11:42:43.264Z,15.11
2022-10-20T11:44:50.450Z,15.09
2022-10-20T11:46:59.089Z,15.10
2022-10-20T11:49:04.520Z,15.12
2022-10-20T11:51:42.387Z,15.17
2022-10-20T11:54:05.045Z,15.21
2022-10-20T11:56:36.906Z,15.27
2022-10-20T11:59:08.003Z,15.29
2022-10-20T12:01:27.034Z,15.28
2022-10-20T12:04:06.218Z,15.23
2022-10-20T12:06:43.268Z,15.33
2022-10-20T12:09:18.410Z,15.33
2022-10-20T12:11:29.635Z,15.34
2022-10-20T12:13:42.336Z,15.36
2022-10-20T12:15:50.384Z,15.38
2022-10-20T12:17:57.034Z,15.36
2022-10-20T12:20:38.147Z,15.39
2022-10-20T12:22:43.457Z,15.45
2022-10-20T12:25:18.732Z,15.46
2022-10-20T12:27:24.400Z,15.48
2022-10-20T12:30:09.414Z,15.47
2022-10-20T12:32:25.895Z,15.45
2022-10-20T12:34:40.870Z,15.43
2022-10-20T12:36:44.593Z,15.37
2022-10-20T12:38:51.209Z,15.42
2022-10-20T12:40:59.169Z,15.41
2022-10-20T12:43:03.080Z,15.41
2022-10-20T12:45:09.300Z,15.33
2022-10-20T12:47:21.626Z,15.28
2022-10-20T12:49:33.500Z,15.17
2022-10-20T12:51:41.074Z,15.07
2022-10-20T12:53:45.164Z,15.03
2022-10-20T12:55:58.325Z,15.00
2022-10-20T12:58:13.027Z,15.02
2022-10-20T13:00:49.852Z,15.04
2022-10-20T13:02:54.581Z,15.05
2022-10-20T13:05:01.916Z,15.02
2022-10-20T13:07:05.722Z,14.99
2022-10-20T13:09:32.874Z,14.94
2022-10-20T13:11:46.356Z,14.96
2022-10-20T13:14:03.071Z,15.03
2022-10-20T13:16:19.071Z,14.98
2022-10-20T13:18:28.968Z,14.98
2022-10-20T13:20:48.029Z,14.92
2022-10-20T13:22:54.469Z,14.84
2022-10-20T13:24:59.467Z,14.80
2022-10-20T13:27:05.662Z,14.74
2022-10-20T13:29:17.295Z,14.69
2022-10-20T13:31:26.878Z,14.63
2022-10-20T13:34:02.468Z,14.63
2022-10-20T13:36:09.745Z,14.59
2022-10-20T13:38:21.129Z,14.55
2022-10-20T13:40:36.646Z,14.53
2022-10-20T13:42:53.206Z,14.56
2022-10-20T13:45:08.027Z,14.56
2022-10-20T13:47:34.647Z,14.50
2022-10-20T13:49:52.967Z,14.48
2022-10-20T13:52:07.546Z,14.46
2022-10-20T13:54:23.126Z,14.44
2022-10-20T13:56:35.059Z,14.43
2022-10-20T13:58:39.629Z,14.42
2022-10-20T14:00:57.519Z,14.44
2022-10-20T14:12:19.573Z,14.34
2022-10-20T14:14:50.270Z,14.29
2022-10-20T14:17:24.578Z,14.22
2022-10-20T14:19:37.320Z,14.18
2022-10-20T14:21:45.384Z,14.13
2022-10-20T14:24:18.431Z,14.10
2022-10-20T14:26:25.515Z,14.06
2022-10-20T14:28:37.637Z,14.00
2022-10-20T14:30:44.378Z,13.98
2022-10-20T14:33:04.903Z,13.95
2022-10-20T14:36:30.213Z,13.92
2022-10-20T14:40:06.663Z,13.93
2022-10-20T14:42:41.351Z,14.00
2022-10-20T14:44:47.262Z,14.04
2022-10-20T14:46:58.514Z,14.09
2022-10-20T14:49:03.364Z,14.13
2022-10-20T14:51:39.969Z,14.19
2022-10-20T14:54:04.996Z,14.27
2022-10-20T14:56:57.512Z,14.28
2022-10-20T14:59:39.260Z,14.35
2022-10-20T15:08:53.292Z,14.45
2022-10-20T15:10:57.944Z,14.44
2022-10-20T15:13:26.674Z,14.45
2022-10-20T15:27:30.569Z,14.27
2022-10-20T15:29:38.742Z,14.21
2022-10-20T15:42:27.128Z,14.08
2022-10-20T15:47:02.793Z,13.98
2022-10-20T15:49:11.172Z,13.95
2022-10-20T15:52:09.769Z,13.94
2022-10-20T15:54:26.079Z,13.92
2022-10-20T15:56:55.195Z,13.92
2022-10-20T16:05:56.270Z,13.91
2022-10-20T16:08:17.464Z,13.91
2022-10-20T16:10:40.369Z,13.91
2022-10-20T16:12:45.117Z,13.92
2022-10-20T16:15:42.343Z,13.92
2022-10-20T16:18:07.303Z,13.90
2022-10-20T16:20:16.714Z,13.87
2022-10-20T16:25:23.450Z,13.82
2022-10-20T16:27:27.507Z,13.78
2022-10-20T16:29:31.159Z,13.77
2022-10-20T16:31:34.912Z,13.75
2022-10-20T16:33:40.297Z,13.69
2022-10-20T16:35:43.812Z,13.67
2022-10-20T16:37:47.907Z,13.62
2022-10-20T16:39:51.441Z,13.57
2022-10-20T16:41:54.988Z,13.54
2022-10-20T16:44:00.973Z,13.52
2022-10-20T16:46:07.214Z,13.46
2022-10-20T16:48:10.907Z,13.44
2022-10-20T16:50:16.373Z,13.40
2022-10-20T16:52:20.076Z,13.33
2022-10-20T16:54:24.016Z,13.26
2022-10-20T16:56:28.085Z,13.23
2022-10-20T16:58:31.999Z,13.15
2022-10-20T17:00:36.038Z,13.11
2022-10-20T17:02:43.066Z,13.09
2022-10-20T17:04:49.891Z,13.05
2022-10-20T17:06:54.813Z,13.03
2022-10-20T17:09:00.575Z,12.96
2022-10-20T17:11:06.267Z,12.95
2022-10-20T17:13:10.462Z,12.90
2022-10-20T17:15:14.171Z,12.90
2022-10-20T17:17:17.991Z,12.87
2022-10-20T17:19:21.743Z,12.82
2022-10-20T17:21:26.330Z,12.87
2022-10-20T17:23:37.329Z,12.90
2022-10-20T17:25:43.603Z,12.90
2022-10-20T17:27:47.626Z,12.89
2022-10-20T17:29:51.328Z,12.89
2022-10-20T17:31:55.364Z,12.88
2022-10-20T17:34:00.012Z,12.86
2022-10-20T17:36:03.498Z,12.83
2022-10-20T17:38:07.816Z,12.84
2022-10-20T17:40:13.693Z,12.82
2022-10-20T17:42:17.969Z,12.81
2022-10-20T17:44:21.448Z,12.77
2022-10-20T17:46:25.113Z,12.75
2022-10-20T17:48:28.727Z,12.76
2022-10-20T17:50:32.333Z,12.75
2022-10-20T17:52:36.175Z,12.73
2022-10-20T17:54:39.916Z,12.71
2022-10-20T17:56:45.077Z,12.68
2022-10-20T17:58:51.784Z,12.68
2022-10-20T18:00:57.057Z,12.66
2022-10-20T18:03:00.899Z,12.64
2022-10-20T18:05:04.981Z,12.64
2022-10-20T18:07:08.529Z,12.63
2022-10-20T18:09:14.743Z,12.61
2022-10-20T18:11:20.184Z,12.60
2022-10-20T18:13:25.269Z,12.59
2022-10-20T18:15:28.971Z,12.59
2022-10-20T18:17:33.123Z,12.56
2022-10-20T18:19:37.025Z,12.48
2022-10-20T18:21:41.216Z,12.40
2022-10-20T18:23:46.269Z,12.33
2022-10-20T18:25:50.748Z,12.29
2022-10-20T18:27:57.448Z,12.25
2022-10-20T18:30:02.405Z,12.23
2022-10-20T18:32:07.331Z,12.17
2022-10-20T18:34:14.263Z,12.14
2022-10-20T18:36:20.027Z,12.10
2022-10-20T18:38:23.801Z,12.08
2022-10-20T18:40:27.407Z,12.05
2022-10-20T18:42:33.355Z,12.01
2022-10-20T18:44:40.527Z,11.96
2022-10-20T18:46:46.418Z,11.92
2022-10-20T18:48:51.330Z,11.87
2022-10-20T18:50:56.420Z,11.81
2022-10-20T18:53:00.235Z,11.74
2022-10-20T18:55:04.426Z,11.67
2022-10-20T18:57:08.152Z,11.63
2022-10-20T18:59:14.244Z,11.60
2022-10-20T19:01:20.112Z,11.60
2022-10-20T19:03:25.635Z,11.60
2022-10-20T19:05:29.604Z,11.61
2022-10-20T19:07:35.222Z,11.61
2022-10-20T19:09:39.281Z,11.60
2022-10-20T19:11:43.639Z,11.62
2022-10-20T19:13:47.702Z,11.63
2022-10-20T19:15:51.926Z,11.62
2022-10-20T19:17:59.404Z,11.63
2022-10-20T19:20:07.692Z,11.62
2022-10-20T19:22:11.587Z,11.64
2022-10-20T19:24:19.805Z,11.64
2022-10-20T19:26:25.702Z,11.63
2022-10-20T19:28:29.582Z,11.62
2022-10-20T19:30:37.299Z,11.64
2022-10-20T19:32:43.565Z,11.65
2022-10-20T19:34:47.404Z,11.66
2022-10-20T19:36:53.183Z,11.66
2022-10-20T19:38:57.644Z,11.67
2022-10-20T19:41:01.944Z,11.69
2022-10-20T19:43:06.372Z,11.70
2022-10-20T19:45:10.985Z,11.69
2022-10-20T19:47:15.038Z,11.67
2022-10-20T19:49:19.425Z,11.66
2022-10-20T19:51:23.227Z,11.64
2022-10-20T19:53:29.589Z,11.62
2022-10-20T19:55:37.434Z,11.62
2022-10-20T19:57:41.896Z,11.59
2022-10-20T19:59:45.735Z,11.59
2022-10-20T20:01:50.326Z,11.55
2022-10-20T20:03:54.104Z,11.51
2022-10-20T20:06:01.603Z,11.48
2022-10-20T20:08:06.227Z,11.46
2022-10-20T20:10:14.527Z,11.44
2022-10-20T20:12:21.024Z,11.43
2022-10-20T20:14:24.905Z,11.44
2022-10-20T20:16:28.803Z,11.45
2022-10-20T20:18:32.302Z,11.45
2022-10-20T20:20:40.357Z,11.45
2022-10-20T20:22:43.997Z,11.48
2022-10-20T20:24:47.839Z,11.51
2022-10-20T20:26:53.047Z,11.56
2022-10-20T20:28:57.763Z,11.57
2022-10-20T20:31:02.695Z,11.58
2022-10-20T21:10:19.051Z,11.58
2022-10-20T21:13:25.967Z,11.64
2022-10-20T21:16:27.031Z,11.70
2022-10-20T21:41:58.840Z,11.92
2022-10-20T21:44:26.835Z,11.95
2022-10-20T21:50:54.732Z,11.99
2022-10-20T22:40:10.791Z,12.34
2022-10-20T22:42:22.585Z,12.35
2022-10-20T22:45:10.973Z,12.35
